createdAt,value
2023-01-15T00:05:33.387Z,7.10
2023-01-15T00:08:19.381Z,6.97
2023-01-15T00:11:05.308Z,7.20
2023-01-15T00:13:51.123Z,7.01
2023-01-15T00:16:37.020Z,7.34
2023-01-15T00:19:22.912Z,6.90
2023-01-15T00:22:08.701Z,7.05
2023-01-15T00:24:54.524Z,6.87
2023-01-15T00:27:40.353Z,6.68
2023-01-15T00:30:26.201Z,6.58
2023-01-15T00:33:12.384Z,6.66
2023-01-15T00:36:00.416Z,7.02
2023-01-15T00:38:46.461Z,7.05
2023-01-15T00:41:32.477Z,6.69
2023-01-15T00:44:18.308Z,7.12
2023-01-15T00:47:04.405Z,7.05
2023-01-15T00:49:50.304Z,6.94
2023-01-15T00:52:36.251Z,6.77
2023-01-15T00:55:22.618Z,6.76
2023-01-15T00:58:08.456Z,7.05
2023-01-15T01:00:54.295Z,7.26
2023-01-15T01:03:40.237Z,7.13
2023-01-15T01:06:26.046Z,7.00
2023-01-15T01:09:11.942Z,7.16
2023-01-15T01:11:57.788Z,6.97
2023-01-15T01:14:43.812Z,6.68
2023-01-15T01:17:29.677Z,7.10
2023-01-15T01:20:15.679Z,7.10
2023-01-15T01:23:01.512Z,7.09
2023-01-15T01:25:47.441Z,7.09
2023-01-15T01:28:33.201Z,7.24
2023-01-15T01:31:19.042Z,7.16
2023-01-15T01:34:04.847Z,7.25
2023-01-15T01:36:50.777Z,6.98
2023-01-15T01:39:36.593Z,7.18
2023-01-15T01:42:22.233Z,7.17
2023-01-15T01:45:08.144Z,7.32
2023-01-15T01:47:53.981Z,7.27
2023-01-15T01:50:39.826Z,7.11
2023-01-15T01:53:25.722Z,7.15
2023-01-15T01:56:11.586Z,7.28
2023-01-15T01:58:57.527Z,7.61
2023-01-15T02:01:43.373Z,7.55
2023-01-15T02:04:29.582Z,7.56
2023-01-15T02:07:15.433Z,7.38
2023-01-15T02:10:01.236Z,7.54
2023-01-15T02:12:47.043Z,7.32
2023-01-15T02:15:32.930Z,7.75
2023-01-15T02:18:18.624Z,7.50
2023-01-15T02:21:04.559Z,7.37
2023-01-15T02:23:50.443Z,7.59
2023-01-15T02:26:36.428Z,7.61
2023-01-15T02:29:24.576Z,7.65
2023-01-15T02:32:10.407Z,7.60
2023-01-15T02:34:56.183Z,7.73
2023-01-15T02:37:42.075Z,7.64
2023-01-15T02:40:27.792Z,7.39
2023-01-15T02:43:13.597Z,7.62
2023-01-15T02:45:59.489Z,7.61
2023-01-15T02:48:45.307Z,7.46
2023-01-15T02:51:31.274Z,7.58
2023-01-15T02:54:17.159Z,7.59
2023-01-15T02:57:03.144Z,7.85
2023-01-15T02:59:49.100Z,7.65
2023-01-15T03:02:35.016Z,8.11
2023-01-15T03:05:21.295Z,8.10
2023-01-15T03:08:07.247Z,8.11
2023-01-15T03:10:53.180Z,8.28
2023-01-15T03:13:39.056Z,8.34
2023-01-15T03:16:24.903Z,7.93
2023-01-15T03:19:10.767Z,8.00
2023-01-15T03:21:56.911Z,8.35
2023-01-15T03:24:42.693Z,8.23
2023-01-15T03:27:28.528Z,8.19
2023-01-15T03:30:14.313Z,8.25
2023-01-15T03:33:00.212Z,8.43
2023-01-15T03:35:46.204Z,8.46
2023-01-15T03:38:31.991Z,8.52
2023-01-15T03:41:17.886Z,8.29
2023-01-15T03:44:04.338Z,8.06
2023-01-15T03:46:50.156Z,8.22
2023-01-15T03:49:38.141Z,8.10
2023-01-15T03:52:24.102Z,8.41
2023-01-15T03:55:09.888Z,8.33
2023-01-15T03:57:55.832Z,8.20
2023-01-15T04:00:41.648Z,8.59
2023-01-15T04:03:27.550Z,8.20
2023-01-15T04:06:13.289Z,8.17
2023-01-15T04:08:59.032Z,8.14
2023-01-15T04:11:44.787Z,8.34
2023-01-15T04:14:30.650Z,8.24
2023-01-15T04:17:16.485Z,8.15
2023-01-15T04:20:02.399Z,8.52
2023-01-15T04:22:48.311Z,8.69
2023-01-15T04:25:34.314Z,8.44
2023-01-15T04:28:22.143Z,8.28
2023-01-15T04:31:07.955Z,8.52
2023-01-15T04:33:53.890Z,8.65
2023-01-15T04:36:39.923Z,8.95
2023-01-15T04:39:25.707Z,9.00
2023-01-15T04:42:11.711Z,8.37
2023-01-15T04:44:57.517Z,8.70
2023-01-15T04:47:43.348Z,8.95
2023-01-15T04:50:29.237Z,8.90
2023-01-15T04:53:17.061Z,8.93
2023-01-15T04:56:02.955Z,8.83
2023-01-15T04:58:48.929Z,8.65
2023-01-15T05:01:34.923Z,8.47
2023-01-15T05:04:22.870Z,8.37
2023-01-15T05:07:08.792Z,8.27
2023-01-15T05:09:54.571Z,8.56
2023-01-15T05:12:40.538Z,8.69
2023-01-15T05:15:26.348Z,8.81
2023-01-15T05:18:12.246Z,8.99
2023-01-15T05:20:58.129Z,8.96
2023-01-15T05:23:43.980Z,9.00
2023-01-15T05:26:29.984Z,8.78
2023-01-15T05:29:15.846Z,8.61
2023-01-15T05:32:01.716Z,8.84
2023-01-15T05:34:47.479Z,8.83
2023-01-15T05:37:33.325Z,8.66
2023-01-15T05:40:19.369Z,8.82
2023-01-15T05:43:05.245Z,8.61
2023-01-15T05:45:51.065Z,8.80
2023-01-15T05:48:37.019Z,9.08
2023-01-15T05:51:22.980Z,8.50
2023-01-15T05:54:08.732Z,8.57
2023-01-15T05:56:54.551Z,8.69
2023-01-15T05:59:40.315Z,8.46
2023-01-15T06:02:28.060Z,8.41
2023-01-15T06:05:13.980Z,8.10
2023-01-15T06:08:01.284Z,8.36
2023-01-15T06:10:47.553Z,8.18
2023-01-15T06:13:33.485Z,8.42
2023-01-15T06:16:19.206Z,8.43
2023-01-15T06:19:05.004Z,8.27
2023-01-15T06:21:50.929Z,8.41
2023-01-15T06:24:36.863Z,8.57
2023-01-15T06:27:22.691Z,8.55
2023-01-15T06:30:08.588Z,8.60
2023-01-15T06:32:54.577Z,8.62
2023-01-15T06:35:40.703Z,8.61
2023-01-15T06:38:26.605Z,8.62
2023-01-15T06:41:12.533Z,9.04
2023-01-15T06:43:58.417Z,9.09
2023-01-15T06:46:44.284Z,8.96
2023-01-15T06:49:30.292Z,8.78
2023-01-15T06:52:15.977Z,8.75
2023-01-15T06:55:03.999Z,8.65
2023-01-15T06:57:49.845Z,8.53
2023-01-15T07:00:35.627Z,8.81
2023-01-15T07:03:21.547Z,8.32
2023-01-15T07:06:07.409Z,8.44
2023-01-15T07:08:53.342Z,8.35
2023-01-15T07:11:39.370Z,8.61
2023-01-15T07:14:25.231Z,8.85
2023-01-15T07:17:11.163Z,9.01
2023-01-15T07:19:57.182Z,8.77
2023-01-15T07:22:43.038Z,8.78
2023-01-15T07:25:28.889Z,8.80
2023-01-15T07:28:14.860Z,8.78
2023-01-15T07:31:00.865Z,8.53
2023-01-15T07:33:46.761Z,8.59
2023-01-15T07:36:32.548Z,8.51
2023-01-15T07:39:18.467Z,8.15
2023-01-15T07:42:04.372Z,7.93
2023-01-15T07:44:50.093Z,7.94
2023-01-15T07:47:35.967Z,7.96
2023-01-15T07:50:21.643Z,8.07
2023-01-15T07:53:07.568Z,8.11
2023-01-15T07:55:53.530Z,8.32
2023-01-15T07:58:39.365Z,8.25
2023-01-15T08:01:25.392Z,8.43
2023-01-15T08:04:11.527Z,8.18
2023-01-15T08:06:57.362Z,8.23
2023-01-15T08:09:43.200Z,8.39
2023-01-15T08:12:28.885Z,8.39
2023-01-15T08:15:14.735Z,8.34
2023-01-15T08:18:00.851Z,8.36
2023-01-15T08:20:47.330Z,7.46
2023-01-15T08:23:33.603Z,7.43
2023-01-15T08:26:19.612Z,6.70
2023-01-15T08:29:05.519Z,6.93
2023-01-15T08:31:51.415Z,6.79
2023-01-15T08:34:37.199Z,6.97
2023-01-15T08:37:25.318Z,6.81
2023-01-15T08:40:11.711Z,6.94
2023-01-15T08:42:57.563Z,7.01
2023-01-15T08:45:43.661Z,6.72
2023-01-15T08:48:29.574Z,6.63
2023-01-15T08:51:15.293Z,6.50
2023-01-15T08:54:01.176Z,5.98
2023-01-15T08:56:47.025Z,5.85
2023-01-15T08:59:32.900Z,5.46
2023-01-15T09:02:18.780Z,4.60
2023-01-15T09:05:04.795Z,4.61
2023-01-15T09:07:50.709Z,4.59
2023-01-15T09:10:36.608Z,5.61
2023-01-15T09:13:22.429Z,4.98
2023-01-15T09:16:08.303Z,5.10
2023-01-15T09:18:54.720Z,5.74
2023-01-15T09:21:40.608Z,6.03
2023-01-15T09:24:26.500Z,6.09
2023-01-15T09:27:12.178Z,6.13
2023-01-15T09:29:58.138Z,5.99
2023-01-15T09:32:44.240Z,6.15
2023-01-15T09:35:30.211Z,6.14
2023-01-15T09:38:16.130Z,6.06
2023-01-15T09:41:01.845Z,6.38
2023-01-15T09:43:50.727Z,5.99
2023-01-15T09:46:37.602Z,5.82
2023-01-15T09:49:23.465Z,6.10
2023-01-15T09:52:09.348Z,6.40
2023-01-15T09:54:55.308Z,6.78
2023-01-15T09:57:41.134Z,6.49
2023-01-15T10:00:27.086Z,6.37
2023-01-15T10:03:13.062Z,6.11
2023-01-15T10:05:58.998Z,6.34
2023-01-15T10:08:44.959Z,6.55
2023-01-15T10:11:30.961Z,6.21
2023-01-15T10:14:16.884Z,5.98
2023-01-15T10:17:02.687Z,6.13
2023-01-15T10:19:48.499Z,6.14
2023-01-15T10:22:34.366Z,6.21
2023-01-15T10:25:20.381Z,6.29
2023-01-15T10:28:06.171Z,6.27
2023-01-15T10:30:52.094Z,6.14
2023-01-15T10:33:37.903Z,5.84
2023-01-15T10:36:23.835Z,6.11
2023-01-15T10:39:09.881Z,5.50
2023-01-15T10:41:55.751Z,5.78
2023-01-15T10:44:41.764Z,5.71
2023-01-15T10:47:27.603Z,5.86
2023-01-15T10:50:13.388Z,4.75
2023-01-15T10:52:59.281Z,5.49
2023-01-15T10:55:45.076Z,5.71
2023-01-15T10:58:31.028Z,5.60
2023-01-15T11:01:17.137Z,5.43
2023-01-15T11:04:03.037Z,5.37
2023-01-15T11:06:48.998Z,5.49
2023-01-15T11:09:34.774Z,5.61
2023-01-15T11:12:20.694Z,5.56
2023-01-15T11:15:06.519Z,5.21
2023-01-15T11:17:52.273Z,5.26
2023-01-15T11:20:38.157Z,3.86
2023-01-15T11:23:23.953Z,4.37
2023-01-15T11:26:09.828Z,3.33
2023-01-15T11:28:55.853Z,2.30
2023-01-15T11:31:41.715Z,2.20
2023-01-15T11:34:27.567Z,1.61
2023-01-15T11:37:13.544Z,2.87
2023-01-15T11:39:59.339Z,3.06
2023-01-15T11:42:45.361Z,3.92
2023-01-15T11:45:31.267Z,4.24
2023-01-15T11:48:17.271Z,3.60
2023-01-15T11:51:03.235Z,2.85
2023-01-15T11:53:49.024Z,3.47
2023-01-15T11:56:35.124Z,3.23
2023-01-15T11:59:21.196Z,2.93
2023-01-15T12:02:06.864Z,3.23
2023-01-15T12:04:52.757Z,3.91
2023-01-15T12:07:38.549Z,4.24
2023-01-15T12:10:24.459Z,4.31
2023-01-15T12:13:10.124Z,4.34
2023-01-15T12:15:55.950Z,4.62
2023-01-15T12:18:41.889Z,4.62
2023-01-15T12:21:27.792Z,4.91
2023-01-15T12:24:13.645Z,5.21
2023-01-15T12:26:59.567Z,4.98
2023-01-15T12:29:45.317Z,4.65
2023-01-15T12:32:31.265Z,4.39
2023-01-15T12:35:17.290Z,4.36
2023-01-15T12:38:03.053Z,4.10
2023-01-15T12:40:48.854Z,4.09
2023-01-15T12:43:34.704Z,4.06
2023-01-15T12:46:20.617Z,3.79
2023-01-15T12:49:06.535Z,3.88
2023-01-15T12:51:52.414Z,4.04
2023-01-15T12:54:40.287Z,4.25
2023-01-15T12:57:26.304Z,4.75
2023-01-15T13:00:12.012Z,4.91
2023-01-15T13:02:58.069Z,5.18
2023-01-15T13:05:44.057Z,5.48
2023-01-15T13:08:29.879Z,5.36
2023-01-15T13:11:15.742Z,5.64
2023-01-15T13:14:01.595Z,5.44
2023-01-15T13:16:47.421Z,5.72
2023-01-15T13:19:33.373Z,5.88
2023-01-15T13:22:19.260Z,5.86
2023-01-15T13:25:05.186Z,6.18
2023-01-15T13:27:51.001Z,5.80
2023-01-15T13:30:37.004Z,5.72
2023-01-15T13:33:24.901Z,5.93
2023-01-15T13:36:10.779Z,5.97
2023-01-15T13:38:56.649Z,6.26
2023-01-15T13:41:42.522Z,6.01
2023-01-15T13:44:28.218Z,5.80
2023-01-15T13:47:16.043Z,5.67
2023-01-15T13:50:02.028Z,5.77
2023-01-15T13:52:47.718Z,6.10
2023-01-15T13:55:33.605Z,5.91
2023-01-15T13:58:19.421Z,5.50
2023-01-15T14:01:08.356Z,5.75
2023-01-15T14:03:54.789Z,5.94
2023-01-15T14:06:40.780Z,5.93
2023-01-15T14:09:26.586Z,5.61
2023-01-15T14:12:12.555Z,5.74
2023-01-15T14:14:58.321Z,5.61
2023-01-15T14:17:44.360Z,5.91
2023-01-15T14:20:30.378Z,5.67
2023-01-15T14:23:16.141Z,5.59
2023-01-15T14:26:02.038Z,5.31
2023-01-15T14:28:47.877Z,4.96
2023-01-15T14:31:33.692Z,5.24
2023-01-15T14:34:19.788Z,5.52
2023-01-15T14:37:05.696Z,5.07
2023-01-15T14:39:51.657Z,5.09
2023-01-15T14:42:37.537Z,4.80
2023-01-15T14:45:23.365Z,5.07
2023-01-15T14:48:09.305Z,5.12
2023-01-15T14:50:55.169Z,5.26
2023-01-15T14:53:40.980Z,5.54
2023-01-15T14:56:26.860Z,5.62
2023-01-15T14:59:12.654Z,5.67
2023-01-15T15:02:00.912Z,5.68
2023-01-15T15:04:46.982Z,5.64
2023-01-15T15:07:32.755Z,5.92
2023-01-15T15:10:18.498Z,5.75
2023-01-15T15:13:04.513Z,5.73
2023-01-15T15:15:50.332Z,5.88
2023-01-15T15:18:36.225Z,5.57
2023-01-15T15:21:22.114Z,5.45
2023-01-15T15:24:08.011Z,5.41
2023-01-15T15:26:53.881Z,5.19
2023-01-15T15:29:39.654Z,5.36
2023-01-15T15:32:25.553Z,5.64
2023-01-15T15:35:11.487Z,5.64
2023-01-15T15:37:57.421Z,5.68
2023-01-15T15:40:43.338Z,5.76
2023-01-15T15:43:29.043Z,6.16
2023-01-15T15:46:14.895Z,6.15
2023-01-15T15:49:00.829Z,5.95
2023-01-15T15:51:46.762Z,5.14
2023-01-15T15:54:32.697Z,5.21
2023-01-15T15:57:18.413Z,5.24
2023-01-15T16:00:04.541Z,5.40
2023-01-15T16:02:50.373Z,5.46
2023-01-15T16:05:38.206Z,5.26
2023-01-15T16:08:24.213Z,4.76
2023-01-15T16:11:10.233Z,4.63
2023-01-15T16:13:56.057Z,4.49
2023-01-15T16:16:42.010Z,4.68
2023-01-15T16:19:27.811Z,5.06
2023-01-15T16:22:13.695Z,4.95
2023-01-15T16:24:59.631Z,4.99
2023-01-15T16:27:45.465Z,4.76
2023-01-15T16:30:31.368Z,4.58
2023-01-15T16:33:17.347Z,4.98
2023-01-15T16:36:03.209Z,4.85
2023-01-15T16:38:49.153Z,4.75
2023-01-15T16:41:34.962Z,4.71
2023-01-15T16:44:20.866Z,4.28
2023-01-15T16:47:06.731Z,4.21
2023-01-15T16:49:52.640Z,3.75
2023-01-15T16:52:38.551Z,3.51
2023-01-15T16:55:24.395Z,3.70
2023-01-15T16:58:10.256Z,3.94
2023-01-15T17:00:56.047Z,4.16
2023-01-15T17:03:41.986Z,4.18
2023-01-15T17:06:27.849Z,4.26
2023-01-15T17:09:13.768Z,4.29
2023-01-15T17:11:59.736Z,4.43
2023-01-15T17:14:45.431Z,4.70
2023-01-15T17:17:31.234Z,4.64
2023-01-15T17:20:17.096Z,4.67
2023-01-15T17:23:03.085Z,4.71
2023-01-15T17:25:48.838Z,4.48
2023-01-15T17:28:34.731Z,4.58
2023-01-15T17:31:20.634Z,4.49
2023-01-15T17:34:06.589Z,4.56
2023-01-15T17:36:52.673Z,4.90
2023-01-15T17:39:38.499Z,4.82
2023-01-15T17:42:24.516Z,4.69
2023-01-15T17:45:11.053Z,4.72
2023-01-15T17:47:57.804Z,4.74
2023-01-15T17:50:43.735Z,4.17
2023-01-15T17:53:29.648Z,4.55
2023-01-15T17:56:15.555Z,4.64
2023-01-15T17:59:01.389Z,4.05
2023-01-15T18:01:47.348Z,4.31
2023-01-15T18:04:33.552Z,4.42
2023-01-15T18:07:21.522Z,4.38
2023-01-15T18:10:07.794Z,4.80
2023-01-15T18:12:53.702Z,4.62
2023-01-15T18:15:39.545Z,4.81
2023-01-15T18:18:25.400Z,4.87
2023-01-15T18:21:11.273Z,4.82
2023-01-15T18:23:57.289Z,4.86
2023-01-15T18:26:43.093Z,4.64
2023-01-15T18:29:29.011Z,4.36
2023-01-15T18:32:14.817Z,4.46
2023-01-15T18:35:00.852Z,4.51
2023-01-15T18:37:46.793Z,4.61
2023-01-15T18:40:32.577Z,4.70
2023-01-15T18:43:18.488Z,4.57
2023-01-15T18:46:04.568Z,4.97
2023-01-15T18:48:50.492Z,4.68
2023-01-15T18:51:36.411Z,4.58
2023-01-15T18:54:22.270Z,4.36
2023-01-15T18:57:08.057Z,4.49
2023-01-15T18:59:54.116Z,4.45
2023-01-15T19:02:40.143Z,4.58
2023-01-15T19:05:26.294Z,4.50
2023-01-15T19:08:12.284Z,4.59
2023-01-15T19:10:58.146Z,4.33
2023-01-15T19:13:43.991Z,4.10
2023-01-15T19:16:29.841Z,3.68
2023-01-15T19:19:15.899Z,3.73
2023-01-15T19:22:01.897Z,3.61
2023-01-15T19:24:47.795Z,3.81
2023-01-15T19:27:33.861Z,4.09
2023-01-15T19:30:19.841Z,3.78
2023-01-15T19:33:05.768Z,4.01
2023-01-15T19:35:51.729Z,4.28
2023-01-15T19:38:37.503Z,4.24
2023-01-15T19:41:23.434Z,4.33
2023-01-15T19:44:09.489Z,4.31
2023-01-15T19:46:55.340Z,3.74
2023-01-15T19:49:41.347Z,3.54
2023-01-15T19:52:27.221Z,3.91
2023-01-15T19:55:13.165Z,3.46
2023-01-15T19:57:58.998Z,3.40
2023-01-15T20:00:44.834Z,3.94
2023-01-15T20:03:30.747Z,3.91
2023-01-15T20:06:16.633Z,3.75
2023-01-15T20:09:02.563Z,3.65
2023-01-15T20:11:48.330Z,3.99
2023-01-15T20:14:34.229Z,4.04
2023-01-15T20:17:20.074Z,3.94
2023-01-15T20:20:06.075Z,3.82
2023-01-15T20:22:51.966Z,4.05
2023-01-15T20:25:37.870Z,4.50
2023-01-15T20:28:23.808Z,4.70
2023-01-15T20:31:09.830Z,4.39
2023-01-15T20:33:55.876Z,4.39
2023-01-15T20:36:41.882Z,3.81
2023-01-15T20:39:27.790Z,3.89
2023-01-15T20:42:13.909Z,3.77
2023-01-15T20:44:59.650Z,4.01
2023-01-15T20:47:45.676Z,3.80
2023-01-15T20:50:32.618Z,4.00
2023-01-15T20:53:18.425Z,4.29
2023-01-15T20:56:04.298Z,4.54
2023-01-15T20:58:50.165Z,4.45
2023-01-15T21:01:36.337Z,4.74
2023-01-15T21:04:22.893Z,4.80
2023-01-15T21:07:08.645Z,4.81
2023-01-15T21:09:54.635Z,4.66
2023-01-15T21:12:40.672Z,4.56
2023-01-15T21:15:26.610Z,4.73
2023-01-15T21:18:12.615Z,4.79
2023-01-15T21:20:58.422Z,4.74
2023-01-15T21:23:44.403Z,4.48
2023-01-15T21:26:30.376Z,4.28
2023-01-15T21:29:16.135Z,4.32
2023-01-15T21:32:02.149Z,4.54
2023-01-15T21:34:48.065Z,4.48
2023-01-15T21:37:33.959Z,4.01
2023-01-15T21:40:20.040Z,4.31
2023-01-15T21:43:05.793Z,3.93
2023-01-15T21:45:51.849Z,3.92
2023-01-15T21:48:37.760Z,3.91
2023-01-15T21:51:23.661Z,4.04
2023-01-15T21:54:09.543Z,4.13
2023-01-15T21:56:55.383Z,4.49
2023-01-15T21:59:41.287Z,4.16
2023-01-15T22:02:27.205Z,4.33
2023-01-15T22:05:13.165Z,4.20
2023-01-15T22:07:59.036Z,4.62
2023-01-15T22:10:45.078Z,4.86
2023-01-15T22:13:30.863Z,4.74
2023-01-15T22:16:16.929Z,4.29
2023-01-15T22:19:02.863Z,4.66
2023-01-15T22:21:48.853Z,4.80
2023-01-15T22:24:34.728Z,4.83
2023-01-15T22:27:20.698Z,5.19
2023-01-15T22:30:06.580Z,5.02
2023-01-15T22:32:52.486Z,4.74
2023-01-15T22:35:38.432Z,4.07
2023-01-15T22:38:24.308Z,4.54
2023-01-15T22:41:10.093Z,4.28
2023-01-15T22:43:55.995Z,4.25
2023-01-15T22:46:41.917Z,4.63
2023-01-15T22:49:27.727Z,4.73
2023-01-15T22:52:13.652Z,4.83
2023-01-15T22:54:59.617Z,4.27
2023-01-15T22:57:45.455Z,4.42
2023-01-15T23:00:31.361Z,4.48
2023-01-15T23:03:17.173Z,4.70
2023-01-15T23:06:03.042Z,4.72
2023-01-15T23:08:48.907Z,5.12
2023-01-15T23:11:34.668Z,4.64
2023-01-15T23:14:20.532Z,5.06
2023-01-15T23:17:06.501Z,4.96
2023-01-15T23:19:52.387Z,4.81
2023-01-15T23:22:38.286Z,4.78
2023-01-15T23:25:24.464Z,4.89
2023-01-15T23:28:10.422Z,5.07
2023-01-15T23:30:56.424Z,4.96
2023-01-15T23:33:42.125Z,5.20
2023-01-15T23:36:27.936Z,4.60
2023-01-15T23:39:14.112Z,4.29
2023-01-15T23:41:59.969Z,4.10
2023-01-15T23:44:45.847Z,4.05
2023-01-15T23:47:31.720Z,4.33
2023-01-15T23:50:17.680Z,4.60
2023-01-15T23:53:03.550Z,4.58
2023-01-15T23:55:49.489Z,4.49
2023-01-15T23:58:35.410Z,4.48
